sensor_id;sensor_type;location;lat;lon;timestamp;pressure;altitude;pressure_sealevel;temperature;humidity
12197;BME280;6161;43.014;25.840;2022-07-23T00:00:27;99767.16;;;22.89;nan
12197;BME280;6161;43.014;25.840;2022-07-23T00:05:18;99768.00;;;22.90;nan
12197;BME280;6161;43.014;25.840;2022-07-23T00:07:44;99760.63;;;22.90;nan
12197;BME280;6161;43.014;25.840;2022-07-23T00:10:09;99752.03;;;22.87;nan
12197;BME280;6161;43.014;25.840;2022-07-23T00:12:36;99760.47;;;22.85;nan
12197;BME280;6161;43.014;25.840;2022-07-23T00:15:03;99767.84;;;22.85;nan
12197;BME280;6161;43.014;25.840;2022-07-23T00:17:29;99715.34;;;22.76;nan
12197;BME280;6161;43.014;25.840;2022-07-23T00:19:54;99728.72;;;22.84;nan
12197;BME280;6161;43.014;25.840;2022-07-23T00:24:45;99711.53;;;22.77;nan
12197;BME280;6161;43.014;25.840;2022-07-23T00:27:10;99698.94;;;22.76;nan
12197;BME280;6161;43.014;25.840;2022-07-23T00:29:36;99762.25;;;22.73;nan
12197;BME280;6161;43.014;25.840;2022-07-23T00:32:02;99751.22;;;22.61;nan
12197;BME280;6161;43.014;25.840;2022-07-23T00:34:27;99755.44;;;22.57;nan
12197;BME280;6161;43.014;25.840;2022-07-23T00:36:53;99740.34;;;22.48;nan
12197;BME280;6161;43.014;25.840;2022-07-23T00:39:19;99731.34;;;22.41;nan
12197;BME280;6161;43.014;25.840;2022-07-23T00:41:46;99737.91;;;22.40;nan
12197;BME280;6161;43.014;25.840;2022-07-23T00:46:53;99735.03;;;22.28;nan
12197;BME280;6161;43.014;25.840;2022-07-23T00:51:46;99729.19;;;22.24;nan
12197;BME280;6161;43.014;25.840;2022-07-23T00:54:11;99755.59;;;22.30;nan
12197;BME280;6161;43.014;25.840;2022-07-23T00:56:37;99772.28;;;22.22;nan
12197;BME280;6161;43.014;25.840;2022-07-23T00:59:03;99716.78;;;22.22;nan
12197;BME280;6161;43.014;25.840;2022-07-23T01:01:29;99724.53;;;22.25;nan
12197;BME280;6161;43.014;25.840;2022-07-23T01:03:54;99709.44;;;22.22;nan
12197;BME280;6161;43.014;25.840;2022-07-23T01:06:19;99701.66;;;22.19;nan
12197;BME280;6161;43.014;25.840;2022-07-23T01:11:11;99723.56;;;22.06;nan
12197;BME280;6161;43.014;25.840;2022-07-23T01:13:41;99728.78;;;22.14;nan
12197;BME280;6161;43.014;25.840;2022-07-23T01:16:07;99773.34;;;22.14;nan
12197;BME280;6161;43.014;25.840;2022-07-23T01:18:32;99714.28;;;22.13;nan
12197;BME280;6161;43.014;25.840;2022-07-23T01:20:58;99741.00;;;22.11;nan
12197;BME280;6161;43.014;25.840;2022-07-23T01:23:23;99735.53;;;22.11;nan
12197;BME280;6161;43.014;25.840;2022-07-23T01:25:52;99758.22;;;22.12;nan
12197;BME280;6161;43.014;25.840;2022-07-23T01:28:18;99736.00;;;22.02;nan
12197;BME280;6161;43.014;25.840;2022-07-23T01:30:44;99755.34;;;22.00;nan
12197;BME280;6161;43.014;25.840;2022-07-23T01:33:10;99750.28;;;22.04;nan
12197;BME280;6161;43.014;25.840;2022-07-23T01:35:35;99735.78;;;22.03;nan
12197;BME280;6161;43.014;25.840;2022-07-23T01:38:01;99720.47;;;22.02;nan
12197;BME280;6161;43.014;25.840;2022-07-23T01:40:26;99757.03;;;22.01;nan
12197;BME280;6161;43.014;25.840;2022-07-23T01:42:52;99727.19;;;22.00;nan
12197;BME280;6161;43.014;25.840;2022-07-23T01:45:18;99742.75;;;21.99;nan
12197;BME280;6161;43.014;25.840;2022-07-23T01:47:43;99711.25;;;21.97;nan
12197;BME280;6161;43.014;25.840;2022-07-23T01:50:09;99790.69;;;21.88;nan
12197;BME280;6161;43.014;25.840;2022-07-23T01:52:34;99742.41;;;21.76;nan
12197;BME280;6161;43.014;25.840;2022-07-23T01:55:00;99746.66;;;21.71;nan
12197;BME280;6161;43.014;25.840;2022-07-23T01:57:26;99725.66;;;21.72;nan
12197;BME280;6161;43.014;25.840;2022-07-23T01:59:51;99701.13;;;21.59;nan
12197;BME280;6161;43.014;25.840;2022-07-23T02:02:16;99731.94;;;21.72;nan
12197;BME280;6161;43.014;25.840;2022-07-23T02:04:42;99721.66;;;21.75;nan
12197;BME280;6161;43.014;25.840;2022-07-23T02:11:59;99771.44;;;21.70;nan
12197;BME280;6161;43.014;25.840;2022-07-23T02:14:25;99721.91;;;21.66;nan
12197;BME280;6161;43.014;25.840;2022-07-23T02:16:50;99743.53;;;21.61;nan
12197;BME280;6161;43.014;25.840;2022-07-23T02:19:16;99771.06;;;21.53;nan
12197;BME280;6161;43.014;25.840;2022-07-23T02:24:07;99769.63;;;21.44;nan
12197;BME280;6161;43.014;25.840;2022-07-23T02:26:32;99753.47;;;21.49;nan
12197;BME280;6161;43.014;25.840;2022-07-23T02:29:00;99721.09;;;21.53;nan
12197;BME280;6161;43.014;25.840;2022-07-23T02:31:26;99750.94;;;21.41;nan
12197;BME280;6161;43.014;25.840;2022-07-23T02:33:52;99725.34;;;21.42;nan
12197;BME280;6161;43.014;25.840;2022-07-23T02:36:17;99759.34;;;21.33;nan
12197;BME280;6161;43.014;25.840;2022-07-23T02:38:43;99773.63;;;21.35;nan
12197;BME280;6161;43.014;25.840;2022-07-23T02:41:08;99773.63;;;21.35;nan
12197;BME280;6161;43.014;25.840;2022-07-23T02:43:34;99728.69;;;21.24;nan
12197;BME280;6161;43.014;25.840;2022-07-23T02:45:59;99742.97;;;21.33;nan
12197;BME280;6161;43.014;25.840;2022-07-23T02:48:26;99778.88;;;21.23;nan
12197;BME280;6161;43.014;25.840;2022-07-23T02:50:51;99766.06;;;21.23;nan
12197;BME280;6161;43.014;25.840;2022-07-23T02:53:17;99746.13;;;21.29;nan
12197;BME280;6161;43.014;25.840;2022-07-23T02:55:43;99767.72;;;21.31;nan
12197;BME280;6161;43.014;25.840;2022-07-23T02:58:08;99725.16;;;21.23;nan
12197;BME280;6161;43.014;25.840;2022-07-23T03:00:34;99760.59;;;21.30;nan
12197;BME280;6161;43.014;25.840;2022-07-23T03:02:59;99771.09;;;21.26;nan
12197;BME280;6161;43.014;25.840;2022-07-23T03:05:25;99747.63;;;21.12;nan
12197;BME280;6161;43.014;25.840;2022-07-23T03:07:50;99771.56;;;21.10;nan
12197;BME280;6161;43.014;25.840;2022-07-23T03:10:16;99759.56;;;21.11;nan
12197;BME280;6161;43.014;25.840;2022-07-23T03:12:41;99798.00;;;21.10;nan
12197;BME280;6161;43.014;25.840;2022-07-23T03:15:07;99745.09;;;21.11;nan
12197;BME280;6161;43.014;25.840;2022-07-23T03:17:33;99726.22;;;21.09;nan
12197;BME280;6161;43.014;25.840;2022-07-23T03:19:58;99782.84;;;21.14;nan
12197;BME280;6161;43.014;25.840;2022-07-23T03:22:24;99774.28;;;21.10;nan
12197;BME280;6161;43.014;25.840;2022-07-23T03:24:49;99763.13;;;21.12;nan
12197;BME280;6161;43.014;25.840;2022-07-23T03:27:22;99801.75;;;21.15;nan
12197;BME280;6161;43.014;25.840;2022-07-23T03:29:48;99805.31;;;21.09;nan
12197;BME280;6161;43.014;25.840;2022-07-23T03:32:14;99793.38;;;21.10;nan
12197;BME280;6161;43.014;25.840;2022-07-23T03:34:41;99778.28;;;21.14;nan
12197;BME280;6161;43.014;25.840;2022-07-23T03:37:06;99742.59;;;21.16;nan
12197;BME280;6161;43.014;25.840;2022-07-23T03:39:31;99767.34;;;21.14;nan
12197;BME280;6161;43.014;25.840;2022-07-23T03:41:57;99806.78;;;21.18;nan
12197;BME280;6161;43.014;25.840;2022-07-23T03:44:23;99806.78;;;21.18;nan
12197;BME280;6161;43.014;25.840;2022-07-23T03:46:48;99819.16;;;21.21;nan
12197;BME280;6161;43.014;25.840;2022-07-23T03:49:14;99769.03;;;21.22;nan
12197;BME280;6161;43.014;25.840;2022-07-23T03:51:39;99819.59;;;21.24;nan
12197;BME280;6161;43.014;25.840;2022-07-23T03:54:05;99780.75;;;21.22;nan
12197;BME280;6161;43.014;25.840;2022-07-23T03:56:30;99812.00;;;21.26;nan
12197;BME280;6161;43.014;25.840;2022-07-23T03:58:56;99827.13;;;21.22;nan
12197;BME280;6161;43.014;25.840;2022-07-23T04:03:47;99820.19;;;21.33;nan
12197;BME280;6161;43.014;25.840;2022-07-23T04:06:13;99868.50;;;21.39;nan
12197;BME280;6161;43.014;25.840;2022-07-23T04:11:04;99820.19;;;21.53;nan
12197;BME280;6161;43.014;25.840;2022-07-23T04:13:29;99824.78;;;21.66;nan
12197;BME280;6161;43.014;25.840;2022-07-23T04:15:55;99775.59;;;21.79;nan
12197;BME280;6161;43.014;25.840;2022-07-23T04:18:20;99832.69;;;21.94;nan
12197;BME280;6161;43.014;25.840;2022-07-23T04:20:49;99835.53;;;22.12;nan
12197;BME280;6161;43.014;25.840;2022-07-23T04:23:15;99778.31;;;22.31;nan
12197;BME280;6161;43.014;25.840;2022-07-23T04:25:41;99773.59;;;22.45;nan
12197;BME280;6161;43.014;25.840;2022-07-23T04:30:32;99814.78;;;22.82;nan
12197;BME280;6161;43.014;25.840;2022-07-23T04:32:57;99844.53;;;23.03;nan
12197;BME280;6161;43.014;25.840;2022-07-23T04:35:23;99842.50;;;23.17;nan
12197;BME280;6161;43.014;25.840;2022-07-23T04:37:52;99844.13;;;23.25;nan
12197;BME280;6161;43.014;25.840;2022-07-23T04:40:18;99839.13;;;23.40;nan
12197;BME280;6161;43.014;25.840;2022-07-23T04:42:43;99775.22;;;23.53;nan
12197;BME280;6161;43.014;25.840;2022-07-23T04:45:09;99784.50;;;23.70;nan
12197;BME280;6161;43.014;25.840;2022-07-23T04:47:34;99883.13;;;23.89;nan
12197;BME280;6161;43.014;25.840;2022-07-23T04:50:00;99828.09;;;24.08;nan
12197;BME280;6161;43.014;25.840;2022-07-23T04:52:26;99785.63;;;24.29;nan
12197;BME280;6161;43.014;25.840;2022-07-23T04:54:51;99812.78;;;24.49;nan
12197;BME280;6161;43.014;25.840;2022-07-23T04:57:17;99845.06;;;24.66;nan
12197;BME280;6161;43.014;25.840;2022-07-23T05:02:08;99821.06;;;25.03;nan
12197;BME280;6161;43.014;25.840;2022-07-23T05:09:24;99816.78;;;25.66;nan
12197;BME280;6161;43.014;25.840;2022-07-23T05:11:49;99835.78;;;25.91;nan
12197;BME280;6161;43.014;25.840;2022-07-23T05:14:15;99858.19;;;26.12;nan
12197;BME280;6161;43.014;25.840;2022-07-23T05:16:41;99893.06;;;26.23;nan
12197;BME280;6161;43.014;25.840;2022-07-23T05:19:06;99850.81;;;26.00;nan
12197;BME280;6161;43.014;25.840;2022-07-23T05:21:32;99841.59;;;26.07;nan
12197;BME280;6161;43.014;25.840;2022-07-23T05:23:58;99822.28;;;26.18;nan
12197;BME280;6161;43.014;25.840;2022-07-23T05:26:25;99831.25;;;26.26;nan
12197;BME280;6161;43.014;25.840;2022-07-23T05:28:51;99843.75;;;26.33;nan
12197;BME280;6161;43.014;25.840;2022-07-23T05:31:16;99859.31;;;26.39;nan
12197;BME280;6161;43.014;25.840;2022-07-23T05:33:42;99829.72;;;26.58;nan
12197;BME280;6161;43.014;25.840;2022-07-23T05:36:08;99831.41;;;26.48;nan
12197;BME280;6161;43.014;25.840;2022-07-23T05:43:26;99810.66;;;27.02;nan
12197;BME280;6161;43.014;25.840;2022-07-23T05:45:51;99854.50;;;27.21;nan
12197;BME280;6161;43.014;25.840;2022-07-23T05:48:17;99849.31;;;27.41;nan
12197;BME280;6161;43.014;25.840;2022-07-23T05:50:42;99848.84;;;27.66;nan
12197;BME280;6161;43.014;25.840;2022-07-23T05:55:33;99837.22;;;27.81;nan
12197;BME280;6161;43.014;25.840;2022-07-23T05:57:59;99869.84;;;28.28;nan
12197;BME280;6161;43.014;25.840;2022-07-23T06:00:25;99842.41;;;28.44;nan
12197;BME280;6161;43.014;25.840;2022-07-23T06:02:51;99841.78;;;28.59;nan
12197;BME280;6161;43.014;25.840;2022-07-23T06:07:42;99843.13;;;28.83;nan
12197;BME280;6161;43.014;25.840;2022-07-23T06:10:08;99828.75;;;28.81;nan
12197;BME280;6161;43.014;25.840;2022-07-23T06:12:34;99816.31;;;29.11;nan
12197;BME280;6161;43.014;25.840;2022-07-23T06:15:00;99813.50;;;29.38;nan
12197;BME280;6161;43.014;25.840;2022-07-23T06:17:25;99816.69;;;29.62;nan
12197;BME280;6161;43.014;25.840;2022-07-23T06:19:55;99825.41;;;29.91;nan
12197;BME280;6161;43.014;25.840;2022-07-23T06:22:21;99829.13;;;30.17;nan
12197;BME280;6161;43.014;25.840;2022-07-23T06:24:47;99811.25;;;30.40;nan
12197;BME280;6161;43.014;25.840;2022-07-23T06:27:13;99820.16;;;30.73;nan
12197;BME280;6161;43.014;25.840;2022-07-23T06:29:39;99838.50;;;30.89;nan
12197;BME280;6161;43.014;25.840;2022-07-23T06:32:06;99833.78;;;30.95;nan
12197;BME280;6161;43.014;25.840;2022-07-23T06:34:32;99829.91;;;30.86;nan
12197;BME280;6161;43.014;25.840;2022-07-23T06:36:58;99844.84;;;30.95;nan
12197;BME280;6161;43.014;25.840;2022-07-23T06:39:23;99820.22;;;31.04;nan
12197;BME280;6161;43.014;25.840;2022-07-23T06:41:49;99826.31;;;31.11;nan
12197;BME280;6161;43.014;25.840;2022-07-23T06:44:14;99832.94;;;31.20;nan
12197;BME280;6161;43.014;25.840;2022-07-23T06:46:40;99826.88;;;31.39;nan
12197;BME280;6161;43.014;25.840;2022-07-23T06:49:06;99835.97;;;31.65;nan
12197;BME280;6161;43.014;25.840;2022-07-23T06:51:31;99844.84;;;31.57;nan
12197;BME280;6161;43.014;25.840;2022-07-23T06:53:57;99847.06;;;31.65;nan
12197;BME280;6161;43.014;25.840;2022-07-23T06:56:24;99843.75;;;31.52;nan
12197;BME280;6161;43.014;25.840;2022-07-23T06:58:49;99836.56;;;31.51;nan
12197;BME280;6161;43.014;25.840;2022-07-23T07:01:15;99826.78;;;31.74;nan
12197;BME280;6161;43.014;25.840;2022-07-23T07:03:40;99823.97;;;31.95;nan
12197;BME280;6161;43.014;25.840;2022-07-23T07:06:06;99828.63;;;32.05;nan
12197;BME280;6161;43.014;25.840;2022-07-23T07:08:31;99816.72;;;32.04;nan
12197;BME280;6161;43.014;25.840;2022-07-23T07:13:22;99830.47;;;32.30;nan
12197;BME280;6161;43.014;25.840;2022-07-23T07:15:48;99811.00;;;32.40;nan
12197;BME280;6161;43.014;25.840;2022-07-23T07:18:14;99817.53;;;32.59;nan
12197;BME280;6161;43.014;25.840;2022-07-23T07:20:42;99819.47;;;32.64;nan
12197;BME280;6161;43.014;25.840;2022-07-23T07:23:08;99825.53;;;32.71;nan
12197;BME280;6161;43.014;25.840;2022-07-23T07:25:33;99813.19;;;32.88;nan
12197;BME280;6161;43.014;25.840;2022-07-23T07:27:59;99822.47;;;33.12;nan
12197;BME280;6161;43.014;25.840;2022-07-23T07:30:24;99796.38;;;33.08;nan
12197;BME280;6161;43.014;25.840;2022-07-23T07:32:50;99756.69;;;33.02;nan
12197;BME280;6161;43.014;25.840;2022-07-23T07:35:15;99806.31;;;33.43;nan
12197;BME280;6161;43.014;25.840;2022-07-23T07:37:41;99816.84;;;33.46;nan
12197;BME280;6161;43.014;25.840;2022-07-23T07:40:07;99801.94;;;33.66;nan
12197;BME280;6161;43.014;25.840;2022-07-23T07:42:32;99816.91;;;33.95;nan
12197;BME280;6161;43.014;25.840;2022-07-23T07:44:58;99816.91;;;34.19;nan
12197;BME280;6161;43.014;25.840;2022-07-23T07:47:24;99803.72;;;34.43;nan
12197;BME280;6161;43.014;25.840;2022-07-23T07:49:49;99804.50;;;34.68;nan
12197;BME280;6161;43.014;25.840;2022-07-23T07:52:14;99814.19;;;34.89;nan
12197;BME280;6161;43.014;25.840;2022-07-23T07:54:40;99810.75;;;34.79;nan
12197;BME280;6161;43.014;25.840;2022-07-23T07:57:05;99808.34;;;34.91;nan
12197;BME280;6161;43.014;25.840;2022-07-23T07:59:31;99799.47;;;35.03;nan
12197;BME280;6161;43.014;25.840;2022-07-23T08:01:56;99782.38;;;35.09;nan
12197;BME280;6161;43.014;25.840;2022-07-23T08:04:22;99813.50;;;35.16;nan
12197;BME280;6161;43.014;25.840;2022-07-23T08:06:47;99817.50;;;35.10;nan
12197;BME280;6161;43.014;25.840;2022-07-23T08:11:38;99788.84;;;35.37;nan
12197;BME280;6161;43.014;25.840;2022-07-23T08:14:03;99793.13;;;35.63;nan
12197;BME280;6161;43.014;25.840;2022-07-23T08:16:29;99792.50;;;35.79;nan
12197;BME280;6161;43.014;25.840;2022-07-23T08:18:55;99788.16;;;35.87;nan
12197;BME280;6161;43.014;25.840;2022-07-23T08:21:20;99784.22;;;36.16;nan
12197;BME280;6161;43.014;25.840;2022-07-23T08:23:46;99784.47;;;36.42;nan
12197;BME280;6161;43.014;25.840;2022-07-23T08:26:11;99789.41;;;36.59;nan
12197;BME280;6161;43.014;25.840;2022-07-23T08:31:03;99787.78;;;36.80;nan
12197;BME280;6161;43.014;25.840;2022-07-23T08:33:31;99793.28;;;36.94;nan
12197;BME280;6161;43.014;25.840;2022-07-23T08:35:57;99779.16;;;36.99;nan
12197;BME280;6161;43.014;25.840;2022-07-23T08:38:22;99790.63;;;37.12;nan
12197;BME280;6161;43.014;25.840;2022-07-23T08:40:52;99789.81;;;37.11;nan
12197;BME280;6161;43.014;25.840;2022-07-23T08:43:20;99783.09;;;37.12;nan
12197;BME280;6161;43.014;25.840;2022-07-23T08:45:48;99779.44;;;37.12;nan
12197;BME280;6161;43.014;25.840;2022-07-23T08:48:16;99797.06;;;37.12;nan
12197;BME280;6161;43.014;25.840;2022-07-23T08:50:44;99771.41;;;36.96;nan
12197;BME280;6161;43.014;25.840;2022-07-23T08:53:10;99795.22;;;37.07;nan
12197;BME280;6161;43.014;25.840;2022-07-23T08:55:36;99793.28;;;37.17;nan
12197;BME280;6161;43.014;25.840;2022-07-23T08:58:02;99781.59;;;37.46;nan
12197;BME280;6161;43.014;25.840;2022-07-23T09:00:28;99774.16;;;37.72;nan
12197;BME280;6161;43.014;25.840;2022-07-23T09:02:55;99779.50;;;37.91;nan
12197;BME280;6161;43.014;25.840;2022-07-23T09:05:21;99788.28;;;38.07;nan
12197;BME280;6161;43.014;25.840;2022-07-23T09:08:09;99780.38;;;38.18;nan
12197;BME280;6161;43.014;25.840;2022-07-23T09:10:50;99779.09;;;38.24;nan
12197;BME280;6161;43.014;25.840;2022-07-23T09:16:08;99789.53;;;38.59;nan
12197;BME280;6161;43.014;25.840;2022-07-23T09:21:24;99773.00;;;38.40;nan
12197;BME280;6161;43.014;25.840;2022-07-23T09:26:41;99767.25;;;37.79;nan
12197;BME280;6161;43.014;25.840;2022-07-23T09:29:09;99765.97;;;37.93;nan
12197;BME280;6161;43.014;25.840;2022-07-23T09:31:52;99765.50;;;37.91;nan
12197;BME280;6161;43.014;25.840;2022-07-23T09:34:34;99769.50;;;38.08;nan
12197;BME280;6161;43.014;25.840;2022-07-23T09:39:39;99758.97;;;38.40;nan
12197;BME280;6161;43.014;25.840;2022-07-23T09:44:48;99764.25;;;38.67;nan
12197;BME280;6161;43.014;25.840;2022-07-23T09:49:40;99757.13;;;38.18;nan
12197;BME280;6161;43.014;25.840;2022-07-23T09:52:26;99732.56;;;38.23;nan
12197;BME280;6161;43.014;25.840;2022-07-23T09:55:00;99747.25;;;38.38;nan
12197;BME280;6161;43.014;25.840;2022-07-23T09:57:27;99752.06;;;38.46;nan
12197;BME280;6161;43.014;25.840;2022-07-23T09:59:52;99751.09;;;38.59;nan
12197;BME280;6161;43.014;25.840;2022-07-23T10:02:18;99778.97;;;38.64;nan
12197;BME280;6161;43.014;25.840;2022-07-23T10:04:45;99742.34;;;38.69;nan
12197;BME280;6161;43.014;25.840;2022-07-23T10:07:13;99743.81;;;38.67;nan
12197;BME280;6161;43.014;25.840;2022-07-23T10:09:40;99738.22;;;38.67;nan
12197;BME280;6161;43.014;25.840;2022-07-23T10:12:12;99734.25;;;38.76;nan
12197;BME280;6161;43.014;25.840;2022-07-23T10:17:22;99738.53;;;38.74;nan
12197;BME280;6161;43.014;25.840;2022-07-23T10:19:48;99728.59;;;38.85;nan
12197;BME280;6161;43.014;25.840;2022-07-23T10:22:19;99728.44;;;38.99;nan
12197;BME280;6161;43.014;25.840;2022-07-23T10:33:17;99710.41;;;39.56;nan
12197;BME280;6161;43.014;25.840;2022-07-23T10:36:02;99721.28;;;39.57;nan
12197;BME280;6161;43.014;25.840;2022-07-23T10:38:50;99707.13;;;39.45;nan
12197;BME280;6161;43.014;25.840;2022-07-23T10:41:33;99715.53;;;39.54;nan
12197;BME280;6161;43.014;25.840;2022-07-23T10:44:16;99693.94;;;39.75;nan
12197;BME280;6161;43.014;25.840;2022-07-23T10:49:29;99702.69;;;40.03;nan
12197;BME280;6161;43.014;25.840;2022-07-23T10:54:42;99674.41;;;40.00;nan
12197;BME280;6161;43.014;25.840;2022-07-23T10:57:12;99680.41;;;39.98;nan
12197;BME280;6161;43.014;25.840;2022-07-23T11:02:41;99676.97;;;40.14;nan
12197;BME280;6161;43.014;25.840;2022-07-23T11:05:09;99680.59;;;40.14;nan
12197;BME280;6161;43.014;25.840;2022-07-23T11:08:09;99682.03;;;40.20;nan
12197;BME280;6161;43.014;25.840;2022-07-23T11:10:49;99678.13;;;40.34;nan
12197;BME280;6161;43.014;25.840;2022-07-23T11:24:02;99656.81;;;40.12;nan
12197;BME280;6161;43.014;25.840;2022-07-23T11:31:58;99633.19;;;39.92;nan
12197;BME280;6161;43.014;25.840;2022-07-23T11:34:48;99658.03;;;40.02;nan
12197;BME280;6161;43.014;25.840;2022-07-23T11:37:43;99652.78;;;40.00;nan
12197;BME280;6161;43.014;25.840;2022-07-23T11:40:11;99653.19;;;39.90;nan
12197;BME280;6161;43.014;25.840;2022-07-23T11:42:39;99646.69;;;39.98;nan
12197;BME280;6161;43.014;25.840;2022-07-23T11:45:06;99647.06;;;40.09;nan
12197;BME280;6161;43.014;25.840;2022-07-23T11:47:33;99624.47;;;40.05;nan
12197;BME280;6161;43.014;25.840;2022-07-23T11:50:01;99658.69;;;40.29;nan
12197;BME280;6161;43.014;25.840;2022-07-23T11:52:28;99643.84;;;40.40;nan
12197;BME280;6161;43.014;25.840;2022-07-23T11:54:56;99645.16;;;40.43;nan
12197;BME280;6161;43.014;25.840;2022-07-23T11:57:28;99632.88;;;40.47;nan
12197;BME280;6161;43.014;25.840;2022-07-23T11:59:57;99629.47;;;40.54;nan
12197;BME280;6161;43.014;25.840;2022-07-23T12:02:25;99657.38;;;40.59;nan
12197;BME280;6161;43.014;25.840;2022-07-23T12:04:52;99633.09;;;40.42;nan
12197;BME280;6161;43.014;25.840;2022-07-23T12:07:35;99628.97;;;40.19;nan
12197;BME280;6161;43.014;25.840;2022-07-23T12:15:04;99629.66;;;40.37;nan
12197;BME280;6161;43.014;25.840;2022-07-23T12:17:35;99617.84;;;40.43;nan
12197;BME280;6161;43.014;25.840;2022-07-23T12:20:04;99614.34;;;40.59;nan
12197;BME280;6161;43.014;25.840;2022-07-23T12:22:42;99620.94;;;40.63;nan
12197;BME280;6161;43.014;25.840;2022-07-23T12:25:13;99605.69;;;40.64;nan
12197;BME280;6161;43.014;25.840;2022-07-23T12:27:40;99594.38;;;40.73;nan
12197;BME280;6161;43.014;25.840;2022-07-23T12:32:48;99589.63;;;40.64;nan
12197;BME280;6161;43.014;25.840;2022-07-23T12:35:14;99598.00;;;40.73;nan
12197;BME280;6161;43.014;25.840;2022-07-23T12:37:42;99599.53;;;40.71;nan
12197;BME280;6161;43.014;25.840;2022-07-23T12:40:32;99610.91;;;40.74;nan
12197;BME280;6161;43.014;25.840;2022-07-23T12:43:04;99589.63;;;40.64;nan
12197;BME280;6161;43.014;25.840;2022-07-23T12:45:43;99594.38;;;40.73;nan
12197;BME280;6161;43.014;25.840;2022-07-23T12:48:16;99590.06;;;40.75;nan
12197;BME280;6161;43.014;25.840;2022-07-23T12:50:44;99571.59;;;40.65;nan
12197;BME280;6161;43.014;25.840;2022-07-23T12:53:25;99588.66;;;40.36;nan
12197;BME280;6161;43.014;25.840;2022-07-23T12:56:01;99586.44;;;40.41;nan
12197;BME280;6161;43.014;25.840;2022-07-23T12:59:23;99591.13;;;40.50;nan
12197;BME280;6161;43.014;25.840;2022-07-23T13:01:34;99587.03;;;40.47;nan
12197;BME280;6161;43.014;25.840;2022-07-23T13:04:14;99586.19;;;40.34;nan
12197;BME280;6161;43.014;25.840;2022-07-23T13:06:45;99582.78;;;40.08;nan
12197;BME280;6161;43.014;25.840;2022-07-23T13:09:14;99581.56;;;39.96;nan
12197;BME280;6161;43.014;25.840;2022-07-23T13:11:40;99585.56;;;39.95;nan
12197;BME280;6161;43.014;25.840;2022-07-23T13:14:06;99582.13;;;39.69;nan
12197;BME280;6161;43.014;25.840;2022-07-23T13:16:32;99567.72;;;39.70;nan
12197;BME280;6161;43.014;25.840;2022-07-23T13:18:59;99554.03;;;39.69;nan
12197;BME280;6161;43.014;25.840;2022-07-23T13:21:26;99563.22;;;39.78;nan
12197;BME280;6161;43.014;25.840;2022-07-23T13:23:53;99577.19;;;39.87;nan
12197;BME280;6161;43.014;25.840;2022-07-23T13:26:19;99569.38;;;39.92;nan
12197;BME280;6161;43.014;25.840;2022-07-23T13:28:45;99586.22;;;39.92;nan
12197;BME280;6161;43.014;25.840;2022-07-23T13:31:10;99573.06;;;40.05;nan
12197;BME280;6161;43.014;25.840;2022-07-23T13:33:36;99555.28;;;40.13;nan
12197;BME280;6161;43.014;25.840;2022-07-23T13:36:02;99550.28;;;40.19;nan
12197;BME280;6161;43.014;25.840;2022-07-23T13:38:28;99564.06;;;40.12;nan
12197;BME280;6161;43.014;25.840;2022-07-23T13:40:54;99548.00;;;40.12;nan
12197;BME280;6161;43.014;25.840;2022-07-23T13:43:21;99552.50;;;40.13;nan
12197;BME280;6161;43.014;25.840;2022-07-23T13:48:13;99540.47;;;39.92;nan
12197;BME280;6161;43.014;25.840;2022-07-23T13:50:40;99537.31;;;39.93;nan
12197;BME280;6161;43.014;25.840;2022-07-23T13:53:09;99540.59;;;39.95;nan
12197;BME280;6161;43.014;25.840;2022-07-23T13:55:36;99535.09;;;39.99;nan
12197;BME280;6161;43.014;25.840;2022-07-23T13:58:03;99538.41;;;40.01;nan
12197;BME280;6161;43.014;25.840;2022-07-23T14:02:57;99527.84;;;39.98;nan
12197;BME280;6161;43.014;25.840;2022-07-23T14:05:22;99549.84;;;39.96;nan
12197;BME280;6161;43.014;25.840;2022-07-23T14:07:48;99533.06;;;39.87;nan
12197;BME280;6161;43.014;25.840;2022-07-23T14:10:16;99540.56;;;39.83;nan
12197;BME280;6161;43.014;25.840;2022-07-23T14:12:43;99545.72;;;39.72;nan
12197;BME280;6161;43.014;25.840;2022-07-23T14:15:08;99532.13;;;39.62;nan
12197;BME280;6161;43.014;25.840;2022-07-23T14:17:36;99524.91;;;39.73;nan
12197;BME280;6161;43.014;25.840;2022-07-23T14:20:03;99533.28;;;39.82;nan
12197;BME280;6161;43.014;25.840;2022-07-23T14:22:29;99520.19;;;39.86;nan
12197;BME280;6161;43.014;25.840;2022-07-23T14:24:54;99522.31;;;39.89;nan
12197;BME280;6161;43.014;25.840;2022-07-23T14:27:22;99555.94;;;39.77;nan
12197;BME280;6161;43.014;25.840;2022-07-23T14:29:48;99517.75;;;39.63;nan
12197;BME280;6161;43.014;25.840;2022-07-23T14:34:38;99518.97;;;39.54;nan
12197;BME280;6161;43.014;25.840;2022-07-23T14:37:04;99514.31;;;39.37;nan
12197;BME280;6161;43.014;25.840;2022-07-23T14:39:30;99514.81;;;39.39;nan
12197;BME280;6161;43.014;25.840;2022-07-23T14:41:56;99504.25;;;39.36;nan
12197;BME280;6161;43.014;25.840;2022-07-23T14:44:21;99552.28;;;39.43;nan
12197;BME280;6161;43.014;25.840;2022-07-23T14:46:47;99508.97;;;39.44;nan
12197;BME280;6161;43.014;25.840;2022-07-23T14:49:12;99508.22;;;39.35;nan
12197;BME280;6161;43.014;25.840;2022-07-23T14:51:38;99516.78;;;39.38;nan
12197;BME280;6161;43.014;25.840;2022-07-23T14:54:04;99496.41;;;39.20;nan
12197;BME280;6161;43.014;25.840;2022-07-23T14:56:30;99498.03;;;39.51;nan
12197;BME280;6161;43.014;25.840;2022-07-23T14:58:56;99501.09;;;39.58;nan
12197;BME280;6161;43.014;25.840;2022-07-23T15:01:22;99491.22;;;39.52;nan
12197;BME280;6161;43.014;25.840;2022-07-23T15:03:49;99509.78;;;39.66;nan
12197;BME280;6161;43.014;25.840;2022-07-23T15:06:15;99492.72;;;39.71;nan
12197;BME280;6161;43.014;25.840;2022-07-23T15:08:41;99497.16;;;39.72;nan
12197;BME280;6161;43.014;25.840;2022-07-23T15:11:07;99496.19;;;39.68;nan
12197;BME280;6161;43.014;25.840;2022-07-23T15:13:35;99497.97;;;39.72;nan
12197;BME280;6161;43.014;25.840;2022-07-23T15:16:00;99497.72;;;39.65;nan
12197;BME280;6161;43.014;25.840;2022-07-23T15:18:26;99497.22;;;39.51;nan
12197;BME280;6161;43.014;25.840;2022-07-23T15:20:51;99473.66;;;39.43;nan